Nearby METAR Reports

 

KBVO - Bartlesville, Oklahoma, USA
Distance from station: WNW 10mi, 16km
Updated: Fri, 23-Jun-2017 2:53pm CDT
Clear
Clear
 Wind from NNE
Wind: NNE 8 mph , 13 km/h, Gust: 17 mph , 28 km/h
Temperature: 88°F , 31°C
Dew Point: 54°F , 12°C
Humidity: 31%
Barometer: 29.89 inHg , 1012.2 hPa
Clouds: Clear
Visibility: 10 miles , 16 km
2017/06/23 19:53 KBVO 231953Z AUTO 03007G15KT 10SM CLR 31/12 A2989 RMK AO2 SLP111 T03060122
KCFV - Coffeyville, Kansas, USA
Distance from station: NNE 31mi, 49km
Updated: Fri, 23-Jun-2017 2:52pm CDT
Clear
Clear
 Wind from ENE
Wind: ENE 15 mph , 24 km/h
Temperature: 88°F , 31°C
Dew Point: 57°F , 14°C
Humidity: 35%
Barometer: 29.86 inHg , 1011.2 hPa
Clouds: Clear
Visibility: 10 miles , 16 km
2017/06/23 19:52 KCFV 231952Z AUTO 06013KT 10SM CLR 31/14 A2986 RMK AO2 SLP104 T03110144
 
KIDP - Independence, Kansas, USA
Distance from station: N 32mi, 52km
Updated: Fri, 23-Jun-2017 3:35pm CDT
Clear
Clear
 Wind from NNE
Wind: NNE 15 mph , 24 km/h
Temperature: 86°F , 30°C
Dew Point: 50°F , 10°C
Humidity: 29%
Barometer: 29.91 inHg , 1012.9 hPa
Clouds: Clear
Visibility: 10 miles , 16 km
2017/06/23 20:35 KIDP 232035Z AUTO 02013KT 10SM CLR 30/10 A2991 RMK AO2
KGCM - Claremore, Oklahoma, USA
Distance from station: SE 35mi, 56km
Updated: Fri, 23-Jun-2017 3:35pm CDT
Clear
Clear
 Wind from NE
Wind: NE 9 mph , 15 km/h, Gust: 23 mph , 37 km/h
Temperature: 82°F , 28°C
Heat Index: 85°F , 29°C
Dew Point: 68°F , 20°C
Humidity: 62%
Barometer: 29.89 inHg , 1012.2 hPa
Clouds: Clear
Visibility: 10 miles , 16 km
2017/06/23 20:35 KGCM 232035Z AUTO 04008G20KT 355V055 10SM CLR 28/20 A2989 RMK AO2
 
KTUL - Tulsa, Oklahoma, USA
Distance from station: S 35mi, 56km
Updated: Fri, 23-Jun-2017 2:53pm CDT
Few Clouds
Few Clouds
 Wind from NE
Wind: NE 18 mph , 30 km/h, Gust: 25 mph , 41 km/h
Temperature: 88°F , 31°C
Heat Index: 93°F , 34°C
Dew Point: 70°F , 21°C
Humidity: 55%
Barometer: 29.86 inHg , 1011.2 hPa
Clouds: Few Clouds
Visibility: 10 miles , 16 km
Cloud details: Few Clouds 3700 ft
Few Clouds 12000 ft
2017/06/23 19:53 KTUL 231953Z 04016G22KT 10SM FEW037 FEW120 31/21 A2986 RMK AO2 PK WND 02026/1930 SLP104 T03060206
KRVS - Tulsa, Oklahoma, USA
Distance from station: S 46mi, 74km
Updated: Fri, 23-Jun-2017 2:53pm CDT
Partly cloudy
Partly cloudy
 Wind from NNE
Wind: NNE 13 mph , 20 km/h, Gust: 22 mph , 35 km/h
Temperature: 88°F , 31°C
Heat Index: 92°F , 33°C
Dew Point: 68°F , 20°C
Humidity: 52%
Barometer: 29.88 inHg , 1011.9 hPa
Clouds: Partly cloudy
Visibility: 10 miles , 16 km
Cloud details: Few Clouds 3800 ft
Partly cloudy 5500 ft
2017/06/23 19:53 KRVS 231953Z 02011G19KT 10SM FEW038 SCT055 31/20 A2988 RMK AO2 SLP119 T03110200
 
KPPF - Parsons, Kansas, USA
Distance from station: NNE 48mi, 76km
Updated: Fri, 23-Jun-2017 2:52pm CDT
Clear
Clear
 Wind from NNE
Wind: NNE 12 mph , 19 km/h, Gust: 21 mph , 33 km/h
Temperature: 88°F , 31°C
Dew Point: 54°F , 12°C
Humidity: 31%
Barometer: 29.89 inHg , 1012.2 hPa
Clouds: Clear
Visibility: 10 miles , 16 km
2017/06/23 19:52 KPPF 231952Z AUTO 02010G18KT 10SM CLR 31/12 A2989 RMK AO2 SLP113 T03060122
KGMJ - Grove, Oklahoma, USA
Distance from station: E 63mi, 101km
Updated: Fri, 23-Jun-2017 3:35pm CDT
Partly cloudy
Partly cloudy
 Wind from NE
Wind: NE 13 mph , 20 km/h, Gust: 22 mph , 35 km/h
Temperature: 82°F , 28°C
Heat Index: 84°F , 29°C
Dew Point: 64°F , 18°C
Humidity: 55%
Barometer: 29.90 inHg , 1012.5 hPa
Clouds: Partly cloudy
Visibility: 10 miles , 16 km
Cloud details: Partly cloudy 6500 ft
2017/06/23 20:35 KGMJ 232035Z AUTO 05011G19KT 10SM SCT065 28/18 A2990 RMK AO2
 
KPNC - Ponca City, Oklahoma, USA
Distance from station: W 69mi, 111km
Updated: Fri, 23-Jun-2017 2:53pm CDT
Clear
Clear
 Wind from NNE
Wind: NNE 16 mph , 26 km/h
Temperature: 88°F , 31°C
Dew Point: 50°F , 10°C
Humidity: 27%
Barometer: 29.90 inHg , 1012.5 hPa
Clouds: Clear
Visibility: 10 miles , 16 km
2017/06/23 19:53 KPNC 231953Z AUTO 03014KT 10SM CLR 31/10 A2990 RMK AO2 PK WND 01026/1859 SLP112 T03060100
KCNU - Chanute, Kansas, USA
Distance from station: NNE 69mi, 112km
Updated: Fri, 23-Jun-2017 2:52pm CDT
Clear
Clear
 Wind from N
Wind: N 18 mph , 30 km/h, Gust: 26 mph , 43 km/h
Temperature: 86°F , 30°C
Dew Point: 54°F , 12°C
Humidity: 33%
Barometer: 29.90 inHg , 1012.5 hPa
Clouds: Clear
Visibility: 10 miles , 16 km
2017/06/23 19:52 KCNU 231952Z AUTO 01016G23KT 10SM CLR 30/12 A2990 RMK AO2 SLP111 T03000117